Bayfield, CO

1:11 PM MDT on July 28, 2016 (GMT -0600)
Pine River Ranches | | Change Station

Elev 7178 ft 37.30 °N, 107.61 °W | Updated 10 minutes ago

Clear
Clear
80.2 °F
Feels Like 80 °F
N
1.7
Wind Variable Wind from NNE

Today
High -- | Low -- °F
--% Chance of Precip.
Yesterday
High -- | Low -- °F
Precip. -- in
Pressure 29.97 in
Visibility 10.0 miles
Clouds Clear
Heat Index 80 °F
Dew Point 52 °F
Humidity 37%
Rainfall 0.00 in
Snow Depth Not available.
6:12 AM 8:21 PM
Waning Crescent, 29% visible
METAR KDRO 281853Z AUTO 13006KT 10SM CLR 31/05 A3028 RMK AO2 SLP149 T03110050
Pressure 29.97 in
Visibility 10.0 miles
Clouds Clear
Heat Index 80 °F
Dew Point 52 °F
Humidity 37%
Rainfall 0.00 in
Snow Depth Not available.
6:12 AM 8:21 PM
Waning Crescent, 29% visible
METAR KDRO 281853Z AUTO 13006KT 10SM CLR 31/05 A3028 RMK AO2 SLP149 T03110050

10-Day Weather Forecast

Almanac

Astronomy

Jul. 28, 2016 Rise Set
Actual Time
Civil Twilight
Nautical Twilight
Astronomical Twilight
Moon
Length of Visible Light
Length of Day
Tomorrow will be .
, % of the Moon is Illuminated

Today's Extremes

State Highs State Lows

Community

WunderPhotos

Upload Photos

1,928,188 photos uploaded!

WunderBlog® & News

Nearby

Air Quality

  Air Quality AQ Index Pollutant
Not available.

Snow Depth

Station Depth Elevation

Earthquake Activity

City Distance Mag. Time & Date
Minimum magnitude displayed is 2.5.

Coastal Water Temperatures

Place Temperature

Stations

Nearby Weather Stations

Station Location Temp. Windchill Dew Point Humidity Wind Precip. Elev Updated Type
                   

Watches & Warnings

There are currently no watches in effect.